createdAt,value
2022-10-06T00:01:36.776Z,87.39
2022-10-06T00:04:03.451Z,88.10
2022-10-06T00:06:30.086Z,88.21
2022-10-06T00:08:56.786Z,88.57
2022-10-06T00:11:23.532Z,88.57
2022-10-06T00:13:50.498Z,88.45
2022-10-06T00:16:21.792Z,88.91
2022-10-06T00:18:48.586Z,88.51
2022-10-06T00:21:15.637Z,87.65
2022-10-06T00:23:42.505Z,87.44
2022-10-06T00:26:16.911Z,87.34
2022-10-06T00:28:48.011Z,87.42
2022-10-06T00:31:16.335Z,87.95
2022-10-06T00:33:43.083Z,87.17
2022-10-06T00:36:09.792Z,87.22
2022-10-06T00:38:36.550Z,87.43
2022-10-06T00:41:03.913Z,87.46
2022-10-06T00:43:49.022Z,87.13
2022-10-06T00:46:46.230Z,86.99
2022-10-06T00:49:13.036Z,87.40
2022-10-06T00:51:43.826Z,88.61
2022-10-06T00:54:11.673Z,87.90
2022-10-06T00:56:40.481Z,87.43
2022-10-06T00:59:16.008Z,88.20
2022-10-06T01:01:51.554Z,88.12
2022-10-06T01:04:18.546Z,88.67
2022-10-06T01:06:49.934Z,88.68
2022-10-06T01:09:19.806Z,88.92
2022-10-06T01:11:48.599Z,89.65
2022-10-06T01:14:15.839Z,89.85
2022-10-06T01:16:46.426Z,89.34
2022-10-06T01:19:55.373Z,89.77
2022-10-06T01:22:55.662Z,89.78
2022-10-06T01:25:22.652Z,89.07
2022-10-06T01:27:53.879Z,89.34
2022-10-06T01:30:39.309Z,89.42
2022-10-06T01:33:06.035Z,89.51
2022-10-06T01:35:33.496Z,90.56
2022-10-06T01:38:00.670Z,90.85
2022-10-06T01:40:29.516Z,91.47
2022-10-06T01:42:59.509Z,92.42
2022-10-06T01:45:27.396Z,92.00
2022-10-06T01:47:54.099Z,90.53
2022-10-06T01:50:21.585Z,91.57
2022-10-06T01:52:48.237Z,91.34
2022-10-06T01:55:15.269Z,91.08
2022-10-06T01:57:43.553Z,91.03
2022-10-06T02:00:12.378Z,91.17
2022-10-06T02:02:42.996Z,90.90
2022-10-06T02:05:11.072Z,91.23
2022-10-06T02:07:41.675Z,90.69
2022-10-06T02:10:09.264Z,91.80
2022-10-06T02:12:36.602Z,92.36
2022-10-06T02:15:03.929Z,91.54
2022-10-06T02:17:30.580Z,90.70
2022-10-06T02:19:57.462Z,91.21
2022-10-06T02:22:24.377Z,92.07
2022-10-06T02:24:57.127Z,91.67
2022-10-06T02:27:29.381Z,91.89
2022-10-06T02:30:00.030Z,92.28
2022-10-06T02:32:40.879Z,92.30
2022-10-06T02:35:13.946Z,91.74
2022-10-06T02:37:47.559Z,91.65
2022-10-06T02:40:25.169Z,90.66
2022-10-06T02:42:58.489Z,91.64
2022-10-06T02:45:25.682Z,91.45
2022-10-06T02:47:58.019Z,91.98
2022-10-06T02:50:31.394Z,91.80
2022-10-06T02:53:00.177Z,91.62
2022-10-06T02:55:35.599Z,92.83
2022-10-06T02:58:03.632Z,92.58
2022-10-06T03:00:37.041Z,92.68
2022-10-06T03:03:05.710Z,92.65
2022-10-06T03:05:33.570Z,92.74
2022-10-06T03:08:03.951Z,93.03
2022-10-06T03:10:30.923Z,92.00
2022-10-06T03:13:04.350Z,92.14
2022-10-06T03:15:35.188Z,92.36
2022-10-06T03:18:07.071Z,93.47
2022-10-06T03:20:49.860Z,92.74
2022-10-06T03:23:18.225Z,92.41
2022-10-06T03:26:01.299Z,92.35
2022-10-06T03:28:30.552Z,92.07
2022-10-06T03:31:07.561Z,92.77
2022-10-06T03:33:39.047Z,92.63
2022-10-06T03:36:16.736Z,91.64
2022-10-06T03:38:48.660Z,93.02
2022-10-06T03:41:23.379Z,93.22
2022-10-06T03:43:56.074Z,92.38
2022-10-06T03:46:32.145Z,92.88
2022-10-06T03:49:14.456Z,92.18
2022-10-06T03:51:47.517Z,92.03
2022-10-06T03:54:28.082Z,93.15
2022-10-06T03:57:00.428Z,92.62
2022-10-06T03:59:35.127Z,93.15
2022-10-06T04:02:05.551Z,93.84
2022-10-06T04:04:39.920Z,93.64
2022-10-06T04:07:12.875Z,94.68
2022-10-06T04:09:48.563Z,93.62
2022-10-06T04:12:29.140Z,93.90
2022-10-06T04:15:00.462Z,94.46
2022-10-06T04:17:41.985Z,95.18
2022-10-06T04:20:12.537Z,94.55
2022-10-06T04:22:48.606Z,93.42
2022-10-06T04:25:23.061Z,93.68
2022-10-06T04:27:55.538Z,93.69
2022-10-06T04:30:30.203Z,94.13
2022-10-06T04:32:57.314Z,95.23
2022-10-06T04:35:27.728Z,95.34
2022-10-06T04:37:56.822Z,95.84
2022-10-06T04:40:25.139Z,95.93
2022-10-06T04:43:04.811Z,96.23
2022-10-06T04:45:40.328Z,97.37
2022-10-06T04:48:12.922Z,98.22
2022-10-06T04:50:55.966Z,97.06
2022-10-06T04:53:26.301Z,97.36
2022-10-06T04:56:16.159Z,97.92
2022-10-06T04:58:50.473Z,98.35
2022-10-06T05:01:30.569Z,99.57
2022-10-06T05:04:08.223Z,98.63
2022-10-06T05:06:46.569Z,99.47
2022-10-06T05:09:24.015Z,99.70
2022-10-06T05:11:58.879Z,98.76
2022-10-06T05:14:33.508Z,98.92
2022-10-06T05:17:00.969Z,98.54
2022-10-06T05:19:36.706Z,99.69
2022-10-06T05:22:05.363Z,99.87
2022-10-06T05:24:38.141Z,100.00
2022-10-06T05:27:09.155Z,100.00
2022-10-06T05:29:39.669Z,100.00
2022-10-06T05:32:19.568Z,99.99
2022-10-06T05:34:54.701Z,100.00
2022-10-06T05:37:25.448Z,100.00
2022-10-06T05:40:04.583Z,100.00
2022-10-06T05:42:43.549Z,100.00
2022-10-06T05:45:15.789Z,99.55
2022-10-06T05:48:01.261Z,99.48
2022-10-06T05:50:35.606Z,99.04
2022-10-06T05:53:24.214Z,98.17
2022-10-06T05:55:55.021Z,97.86
2022-10-06T05:58:21.827Z,97.09
2022-10-06T06:00:58.843Z,96.62
2022-10-06T06:03:34.861Z,95.85
2022-10-06T06:06:02.309Z,95.31
2022-10-06T06:08:33.395Z,95.14
2022-10-06T06:11:17.234Z,94.19
2022-10-06T06:13:51.049Z,94.20
2022-10-06T06:16:24.737Z,94.09
2022-10-06T06:18:55.902Z,93.88
2022-10-06T06:21:29.062Z,93.62
2022-10-06T06:24:01.689Z,92.95
2022-10-06T06:26:37.229Z,92.33
2022-10-06T06:29:13.449Z,91.91
2022-10-06T06:31:47.911Z,91.21
2022-10-06T06:34:21.219Z,90.17
2022-10-06T06:36:55.670Z,89.96
2022-10-06T06:39:32.039Z,89.55
2022-10-06T06:42:12.172Z,89.26
2022-10-06T06:44:50.893Z,88.33
2022-10-06T06:47:46.179Z,87.79
2022-10-06T06:50:14.076Z,86.86
2022-10-06T06:52:51.111Z,86.59
2022-10-06T06:55:34.958Z,86.10
2022-10-06T06:58:16.408Z,86.63
2022-10-06T07:00:46.645Z,86.27
2022-10-06T07:03:52.556Z,86.03
2022-10-06T07:06:27.118Z,86.11
2022-10-06T07:09:23.895Z,85.80
2022-10-06T07:11:59.815Z,84.61
2022-10-06T07:14:34.441Z,84.26
2022-10-06T07:17:29.021Z,84.46
2022-10-06T07:20:20.706Z,84.45
2022-10-06T07:23:08.316Z,83.60
2022-10-06T07:25:46.552Z,83.54
2022-10-06T07:28:17.577Z,82.57
2022-10-06T07:30:46.859Z,82.69
2022-10-06T07:33:23.986Z,82.34
2022-10-06T07:35:54.641Z,82.35
2022-10-06T07:38:27.111Z,80.66
2022-10-06T07:43:57.023Z,81.73
2022-10-06T07:46:29.473Z,83.95
2022-10-06T07:49:05.752Z,83.26
2022-10-06T07:51:35.759Z,83.37
2022-10-06T07:54:26.576Z,82.89
2022-10-06T07:57:09.924Z,82.64
2022-10-06T07:59:43.099Z,82.43
2022-10-06T08:02:12.717Z,82.58
2022-10-06T08:04:50.300Z,82.43
2022-10-06T08:07:20.450Z,83.42
2022-10-06T08:09:51.845Z,81.15
2022-10-06T08:12:34.860Z,79.13
2022-10-06T08:15:06.998Z,79.93
2022-10-06T08:17:47.455Z,78.01
2022-10-06T08:20:19.092Z,78.27
2022-10-06T08:22:48.568Z,76.33
2022-10-06T08:25:15.837Z,76.44
2022-10-06T08:27:53.533Z,76.22
2022-10-06T08:30:27.899Z,77.52
2022-10-06T08:33:05.278Z,77.05
2022-10-06T08:35:38.667Z,77.63
2022-10-06T08:38:10.678Z,77.07
2022-10-06T08:40:46.491Z,76.03
2022-10-06T08:43:22.548Z,74.85
2022-10-06T08:46:03.650Z,75.01
2022-10-06T08:48:41.878Z,75.06
2022-10-06T08:51:22.527Z,74.02
2022-10-06T08:54:38.654Z,73.28
2022-10-06T08:57:28.239Z,72.54
2022-10-06T08:59:59.206Z,72.89
2022-10-06T09:02:40.513Z,71.11
2022-10-06T09:05:13.275Z,71.83
2022-10-06T09:08:05.752Z,72.10
2022-10-06T09:11:06.772Z,71.59
2022-10-06T09:13:42.189Z,72.18
2022-10-06T09:16:17.739Z,71.32
2022-10-06T09:19:07.576Z,72.04
2022-10-06T09:21:57.816Z,72.72
2022-10-06T09:24:54.043Z,72.09
2022-10-06T09:27:38.755Z,72.40
2022-10-06T09:30:11.288Z,72.62
2022-10-06T09:33:03.519Z,73.09
2022-10-06T09:36:10.466Z,73.45
2022-10-06T09:38:49.762Z,73.14
2022-10-06T09:41:25.216Z,73.21
2022-10-06T09:44:01.724Z,73.24
2022-10-06T09:46:44.060Z,72.87
2022-10-06T09:49:21.221Z,72.38
2022-10-06T09:52:12.990Z,71.73
2022-10-06T09:54:46.921Z,71.24
2022-10-06T09:57:22.180Z,71.56
2022-10-06T09:59:49.170Z,72.02
2022-10-06T10:02:27.255Z,71.58
2022-10-06T10:04:58.251Z,70.64
2022-10-06T10:07:30.739Z,71.24
2022-10-06T10:10:24.494Z,71.17
2022-10-06T10:12:58.153Z,70.93
2022-10-06T10:15:51.313Z,71.59
2022-10-06T10:18:31.410Z,70.38
2022-10-06T10:21:08.341Z,69.58
2022-10-06T10:23:43.449Z,69.93
2022-10-06T10:26:33.068Z,69.40
2022-10-06T10:29:24.050Z,69.08
2022-10-06T10:32:17.297Z,67.87
2022-10-06T10:35:08.673Z,68.59
2022-10-06T10:37:49.339Z,69.58
2022-10-06T10:40:59.951Z,67.38
2022-10-06T10:43:44.723Z,67.26
2022-10-06T10:46:33.591Z,68.39
2022-10-06T10:49:16.528Z,68.14
2022-10-06T10:51:53.367Z,68.12
2022-10-06T10:54:31.763Z,68.24
2022-10-06T10:57:12.431Z,67.19
2022-10-06T11:00:07.716Z,66.44
2022-10-06T11:02:38.691Z,67.27
2022-10-06T11:05:25.304Z,67.40
2022-10-06T11:08:08.229Z,67.26
2022-10-06T11:10:56.413Z,66.81
2022-10-06T11:13:48.208Z,66.48
2022-10-06T11:16:33.277Z,66.78
2022-10-06T11:19:16.549Z,66.81
2022-10-06T11:22:21.691Z,67.48
2022-10-06T11:28:20.917Z,65.96
2022-10-06T11:31:03.800Z,66.28
2022-10-06T11:34:04.860Z,65.50
2022-10-06T11:36:59.571Z,64.30
2022-10-06T11:39:53.955Z,66.78
2022-10-06T11:42:42.360Z,64.99
2022-10-06T11:45:15.996Z,65.68
2022-10-06T11:48:22.986Z,64.08
2022-10-06T11:50:58.046Z,63.95
2022-10-06T11:53:26.986Z,66.23
2022-10-06T11:56:36.790Z,67.48
2022-10-06T11:59:13.838Z,68.21
2022-10-06T12:01:49.814Z,67.38
2022-10-06T12:04:29.035Z,65.96
2022-10-06T12:07:01.456Z,64.84
2022-10-06T12:09:44.643Z,65.76
2022-10-06T12:12:20.587Z,64.67
2022-10-06T12:16:58.263Z,63.57
2022-10-06T12:18:30.721Z,63.46
2022-10-06T12:21:08.618Z,65.18
2022-10-06T12:23:58.526Z,64.75
2022-10-06T12:26:36.891Z,63.53
2022-10-06T12:29:24.445Z,63.38
2022-10-06T12:32:22.150Z,63.81
2022-10-06T12:35:14.054Z,62.73
2022-10-06T12:37:43.000Z,61.80
2022-10-06T12:40:47.461Z,63.08
2022-10-06T12:43:16.811Z,62.42
2022-10-06T12:45:48.927Z,61.96
2022-10-06T12:48:22.652Z,60.95
2022-10-06T12:50:58.996Z,61.04
2022-10-06T12:53:37.591Z,60.54
2022-10-06T12:56:28.417Z,60.99
2022-10-06T12:58:57.861Z,60.70
2022-10-06T13:01:35.969Z,60.57
2022-10-06T13:04:35.726Z,61.77
2022-10-06T13:07:12.981Z,61.97
2022-10-06T13:09:53.270Z,62.04
2022-10-06T13:12:27.969Z,62.07
2022-10-06T13:15:19.661Z,62.89
2022-10-06T13:17:51.079Z,62.49
2022-10-06T13:20:25.386Z,61.98
2022-10-06T13:23:02.938Z,63.29
2022-10-06T13:25:57.751Z,63.31
2022-10-06T13:28:32.054Z,63.23
2022-10-06T13:31:02.982Z,63.46
2022-10-06T13:33:43.732Z,63.68
2022-10-06T13:36:17.466Z,64.81
2022-10-06T13:38:47.379Z,67.93
2022-10-06T13:41:47.961Z,68.99
2022-10-06T13:44:20.262Z,70.75
2022-10-06T13:47:02.570Z,69.98
2022-10-06T13:49:43.234Z,70.27
2022-10-06T13:52:34.133Z,72.06
2022-10-06T13:55:17.001Z,73.23
2022-10-06T13:58:06.819Z,71.69
2022-10-06T14:01:01.433Z,68.03
2022-10-06T14:03:43.045Z,69.50
2022-10-06T14:06:36.196Z,67.56
2022-10-06T14:09:13.517Z,68.91
2022-10-06T14:11:43.389Z,69.72
2022-10-06T14:14:22.333Z,68.64
2022-10-06T14:16:55.944Z,70.54
2022-10-06T14:19:47.966Z,71.34
2022-10-06T14:22:36.884Z,73.23
2022-10-06T14:25:16.523Z,70.41
2022-10-06T14:27:51.116Z,69.91
2022-10-06T14:30:19.316Z,67.31
2022-10-06T14:32:53.394Z,68.48
2022-10-06T14:35:26.723Z,68.90
2022-10-06T14:37:54.765Z,68.14
2022-10-06T14:40:26.342Z,69.68
2022-10-06T14:42:53.731Z,67.73
2022-10-06T14:45:23.338Z,69.13
2022-10-06T14:47:54.269Z,72.24
2022-10-06T14:50:31.148Z,72.41
2022-10-06T14:53:06.936Z,75.18
2022-10-06T14:55:40.719Z,75.09
2022-10-06T14:58:08.889Z,77.88
2022-10-06T15:00:37.797Z,76.36
2022-10-06T15:03:07.467Z,76.08
2022-10-06T15:05:56.561Z,78.44
2022-10-06T15:08:31.082Z,77.85
2022-10-06T15:11:04.051Z,75.75
2022-10-06T15:13:32.623Z,76.01
2022-10-06T15:16:00.199Z,73.46
2022-10-06T15:18:27.842Z,77.72
2022-10-06T15:21:01.608Z,76.08
2022-10-06T15:23:33.352Z,75.36
2022-10-06T15:26:19.778Z,75.04
2022-10-06T15:29:04.657Z,80.61
2022-10-06T15:31:47.795Z,81.45
2022-10-06T15:34:28.778Z,77.19
2022-10-06T15:37:00.750Z,75.76
2022-10-06T15:39:32.126Z,76.14
2022-10-06T15:42:02.543Z,75.70
2022-10-06T15:44:37.253Z,74.28
2022-10-06T15:47:06.323Z,77.63
2022-10-06T15:49:48.211Z,78.44
2022-10-06T15:52:20.010Z,77.60
2022-10-06T15:54:53.953Z,77.58
2022-10-06T15:57:22.629Z,76.97
2022-10-06T15:59:51.001Z,77.37
2022-10-06T16:02:21.273Z,78.17
2022-10-06T16:05:04.740Z,79.55
2022-10-06T16:07:35.494Z,81.20
2022-10-06T16:10:07.665Z,82.85
2022-10-06T16:12:34.785Z,83.01
2022-10-06T16:15:06.681Z,84.02
2022-10-06T16:17:35.281Z,85.55
2022-10-06T16:20:06.519Z,86.99
2022-10-06T16:22:42.357Z,87.57
2022-10-06T16:25:14.335Z,88.29
2022-10-06T16:27:43.243Z,88.37
2022-10-06T16:30:10.134Z,88.51
2022-10-06T16:32:43.131Z,88.73
2022-10-06T16:35:18.052Z,89.40
2022-10-06T16:37:50.905Z,90.34
2022-10-06T16:40:23.928Z,90.47
2022-10-06T16:43:02.358Z,90.83
2022-10-06T16:45:33.524Z,90.99
2022-10-06T16:48:11.488Z,91.49
2022-10-06T16:50:44.856Z,91.75
2022-10-06T16:53:19.073Z,92.43
2022-10-06T16:55:45.709Z,92.96
2022-10-06T16:58:21.119Z,93.86
2022-10-06T17:00:58.776Z,93.25
2022-10-06T17:03:35.901Z,93.66
2022-10-06T17:06:15.530Z,93.34
2022-10-06T17:08:49.497Z,93.01
2022-10-06T17:11:27.087Z,93.90
2022-10-06T17:13:56.362Z,93.70
2022-10-06T17:16:32.772Z,93.93
2022-10-06T17:19:03.058Z,93.49
2022-10-06T17:21:46.681Z,94.08
2022-10-06T17:24:18.432Z,93.70
2022-10-06T17:26:51.373Z,93.71
2022-10-06T17:29:22.528Z,93.34
2022-10-06T17:32:00.770Z,93.31
2022-10-06T17:34:34.287Z,93.39
2022-10-06T17:37:03.851Z,93.17
2022-10-06T17:39:43.570Z,93.71
2022-10-06T17:42:15.336Z,93.79
2022-10-06T17:44:41.996Z,94.09
2022-10-06T17:47:12.675Z,94.30
2022-10-06T17:49:40.141Z,94.81
2022-10-06T17:52:11.239Z,94.30
2022-10-06T17:54:42.652Z,93.74
2022-10-06T17:57:10.973Z,94.01
2022-10-06T17:59:49.254Z,93.33
2022-10-06T18:02:20.104Z,93.58
2022-10-06T18:04:52.051Z,93.41
2022-10-06T18:07:23.836Z,93.85
2022-10-06T18:10:10.023Z,94.23
2022-10-06T18:12:39.363Z,94.21
2022-10-06T18:15:07.944Z,93.86
2022-10-06T18:17:43.520Z,94.42
2022-10-06T18:20:11.527Z,95.46
2022-10-06T18:22:38.612Z,95.53
2022-10-06T18:25:16.841Z,96.31
2022-10-06T18:27:43.984Z,95.84
2022-10-06T18:30:11.444Z,94.90
2022-10-06T18:35:00.619Z,95.13
2022-10-06T18:38:28.108Z,95.53
2022-10-06T18:41:04.731Z,96.29
2022-10-06T18:43:36.617Z,96.49
2022-10-06T18:46:26.261Z,97.12
2022-10-06T18:48:58.030Z,96.82
2022-10-06T18:51:38.839Z,96.15
2022-10-06T18:54:14.838Z,96.17
2022-10-06T18:56:59.425Z,96.92
2022-10-06T18:59:31.936Z,97.58
2022-10-06T19:02:04.308Z,96.99
2022-10-06T19:04:41.216Z,97.10
2022-10-06T19:07:11.689Z,97.51
2022-10-06T19:09:46.801Z,97.59
2022-10-06T19:12:19.997Z,97.11
2022-10-06T19:14:50.968Z,97.39
2022-10-06T19:17:28.253Z,98.41
2022-10-06T19:20:06.371Z,98.38
2022-10-06T19:22:39.558Z,97.68
2022-10-06T19:25:15.431Z,98.58
2022-10-06T19:27:49.814Z,98.63
2022-10-06T19:30:21.384Z,98.87
2022-10-06T19:32:58.641Z,99.16
2022-10-06T19:35:26.627Z,99.76
2022-10-06T19:37:53.743Z,99.56
2022-10-06T19:40:23.130Z,100.00
2022-10-06T19:42:56.267Z,99.98
2022-10-06T19:45:23.989Z,100.00
2022-10-06T19:47:58.986Z,100.00
2022-10-06T19:50:29.392Z,100.00
2022-10-06T19:52:57.469Z,100.00
2022-10-06T19:55:31.179Z,100.00
2022-10-06T19:58:08.728Z,100.00
2022-10-06T20:00:44.942Z,100.00
2022-10-06T20:03:18.223Z,100.00
2022-10-06T20:05:58.755Z,100.00
2022-10-06T20:08:32.165Z,100.00
2022-10-06T20:11:12.303Z,100.00
2022-10-06T20:13:42.874Z,100.00
2022-10-06T20:16:20.299Z,100.00
2022-10-06T20:18:58.290Z,100.00
2022-10-06T20:21:37.894Z,99.85
2022-10-06T20:24:08.130Z,100.00
2022-10-06T20:26:43.254Z,99.14
2022-10-06T20:29:17.145Z,99.96
2022-10-06T20:31:56.975Z,99.03
2022-10-06T20:34:27.879Z,99.46
2022-10-06T20:37:09.405Z,100.00
2022-10-06T20:40:01.282Z,100.00
2022-10-06T20:42:37.352Z,100.00
2022-10-06T20:45:09.387Z,100.00
2022-10-06T20:47:43.396Z,100.00
2022-10-06T20:50:12.604Z,100.00
2022-10-06T20:52:42.191Z,100.00
2022-10-06T20:55:13.083Z,100.00
2022-10-06T20:57:46.347Z,99.85
2022-10-06T21:00:25.330Z,99.62
2022-10-06T21:02:59.783Z,99.25
2022-10-06T21:05:31.660Z,97.78
2022-10-06T21:07:59.278Z,97.73
2022-10-06T21:10:30.439Z,97.20
2022-10-06T21:13:00.374Z,96.99
2022-10-06T21:15:36.268Z,97.99
2022-10-06T21:18:10.723Z,98.11
2022-10-06T21:20:45.406Z,97.75
2022-10-06T21:23:15.359Z,97.65
2022-10-06T21:25:46.208Z,98.50
2022-10-06T21:28:30.110Z,97.20
2022-10-06T21:31:04.764Z,96.75
2022-10-06T21:33:42.920Z,97.62
2022-10-06T21:36:16.471Z,98.24
2022-10-06T21:38:48.882Z,99.13
2022-10-06T21:41:41.314Z,98.55
2022-10-06T21:44:18.802Z,98.11
2022-10-06T21:46:48.887Z,97.71
2022-10-06T21:49:20.132Z,98.35
2022-10-06T21:51:49.811Z,98.45
2022-10-06T21:54:23.466Z,98.97
2022-10-06T21:56:51.324Z,100.00
2022-10-06T21:59:18.203Z,100.00
2022-10-06T22:01:46.700Z,100.00
2022-10-06T22:04:14.673Z,99.09
2022-10-06T22:06:43.072Z,98.30
2022-10-06T22:09:14.024Z,99.33
2022-10-06T22:11:42.468Z,100.00
2022-10-06T22:14:12.253Z,99.49
2022-10-06T22:16:39.557Z,98.08
2022-10-06T22:19:08.361Z,98.45
2022-10-06T22:21:40.350Z,98.99
2022-10-06T22:24:09.525Z,100.00
2022-10-06T22:26:38.429Z,99.71
2022-10-06T22:29:08.176Z,99.52
2022-10-06T22:31:36.886Z,100.00
2022-10-06T22:34:06.578Z,100.00
2022-10-06T22:36:34.534Z,100.00
2022-10-06T22:39:01.299Z,100.00
2022-10-06T22:41:28.439Z,100.00
2022-10-06T22:43:59.943Z,100.00
2022-10-06T22:46:29.250Z,100.00
2022-10-06T22:48:56.805Z,100.00
2022-10-06T22:51:24.041Z,100.00
2022-10-06T22:53:58.763Z,100.00
2022-10-06T22:56:27.091Z,100.00
2022-10-06T22:58:53.971Z,100.00
2022-10-06T23:01:21.189Z,100.00
2022-10-06T23:03:48.146Z,100.00
2022-10-06T23:06:17.186Z,100.00
2022-10-06T23:08:44.675Z,97.71
2022-10-06T23:11:14.209Z,96.14
2022-10-06T23:13:43.227Z,95.71
2022-10-06T23:16:12.786Z,95.59
2022-10-06T23:18:42.114Z,100.00
2022-10-06T23:21:11.505Z,100.00
2022-10-06T23:23:38.186Z,100.00
2022-10-06T23:26:11.053Z,100.00
2022-10-06T23:28:37.994Z,100.00
2022-10-06T23:31:06.317Z,100.00
2022-10-06T23:33:33.467Z,100.00
2022-10-06T23:36:02.420Z,100.00
2022-10-06T23:38:29.330Z,100.00
2022-10-06T23:40:56.265Z,98.42
2022-10-06T23:43:23.484Z,96.44
2022-10-06T23:45:50.483Z,95.55
2022-10-06T23:48:17.787Z,96.65
2022-10-06T23:50:58.276Z,96.08
2022-10-06T23:53:25.735Z,94.53
2022-10-06T23:55:52.432Z,94.34
2022-10-06T23:58:20.704Z,95.39
